createdAt,value
2023-03-06T00:00:41.518Z,100859.44
2023-03-06T00:03:09.217Z,100855.94
2023-03-06T00:05:37.002Z,100850.78
2023-03-06T00:08:05.084Z,100850.78
2023-03-06T00:10:33.550Z,100845.66
2023-03-06T00:13:06.213Z,100840.50
2023-03-06T00:15:34.072Z,100845.03
2023-03-06T00:18:05.103Z,100833.50
2023-03-06T00:20:33.497Z,100837.81
2023-03-06T00:23:01.347Z,100825.47
2023-03-06T00:25:29.038Z,100828.16
2023-03-06T00:27:56.767Z,100824.66
2023-03-06T00:30:26.501Z,100823.84
2023-03-06T00:32:54.771Z,100824.84
2023-03-06T00:35:22.620Z,100820.53
2023-03-06T00:37:50.342Z,100817.03
2023-03-06T00:40:20.544Z,100807.38
2023-03-06T00:42:48.660Z,100812.72
2023-03-06T00:45:16.868Z,100791.72
2023-03-06T00:47:45.946Z,100800.38
2023-03-06T00:50:13.700Z,100799.75
2023-03-06T00:52:42.130Z,100800.56
2023-03-06T00:55:10.729Z,100797.28
2023-03-06T00:57:38.538Z,100806.94
2023-03-06T01:00:07.728Z,100801.81
2023-03-06T01:02:35.507Z,100795.00
2023-03-06T01:05:04.899Z,100795.22
2023-03-06T01:07:34.032Z,100795.41
2023-03-06T01:10:01.791Z,100787.59
2023-03-06T01:12:29.610Z,100785.94
2023-03-06T01:14:57.358Z,100786.97
2023-03-06T01:17:25.141Z,100777.72
2023-03-06T01:19:52.988Z,100780.19
2023-03-06T01:22:22.055Z,100778.53
2023-03-06T01:24:49.784Z,100773.19
2023-03-06T01:27:17.485Z,100759.41
2023-03-06T01:29:45.222Z,100776.28
2023-03-06T01:32:13.027Z,100776.47
2023-03-06T01:34:40.784Z,100775.84
2023-03-06T01:37:08.490Z,100777.06
2023-03-06T01:39:37.584Z,100773.78
2023-03-06T01:42:05.817Z,100765.75
2023-03-06T01:44:33.626Z,100767.63
2023-03-06T01:47:02.332Z,100766.78
2023-03-06T01:49:33.036Z,100768.63
2023-03-06T01:52:04.620Z,100761.66
2023-03-06T01:54:37.475Z,100756.31
2023-03-06T01:57:16.022Z,100756.69
2023-03-06T01:59:45.242Z,100757.53
2023-03-06T02:02:17.249Z,100760.19
2023-03-06T02:04:45.295Z,100759.56
2023-03-06T02:07:15.225Z,100750.13
2023-03-06T02:09:42.955Z,100750.94
2023-03-06T02:12:15.222Z,100751.97
2023-03-06T02:14:43.960Z,100750.53
2023-03-06T02:17:14.412Z,100749.69
2023-03-06T02:19:53.344Z,100746.19
2023-03-06T02:22:21.911Z,100746.41
2023-03-06T02:24:53.345Z,100738.38
2023-03-06T02:27:24.445Z,100741.25
2023-03-06T02:29:52.177Z,100732.41
2023-03-06T02:32:19.892Z,100728.09
2023-03-06T02:34:54.098Z,100731.16
2023-03-06T02:37:22.839Z,100726.22
2023-03-06T02:39:55.784Z,100725.22
2023-03-06T02:42:28.792Z,100717.19
2023-03-06T02:44:59.488Z,100706.28
2023-03-06T02:47:27.536Z,100705.47
2023-03-06T02:49:55.282Z,100704.66
2023-03-06T02:52:23.100Z,100700.34
2023-03-06T02:54:50.804Z,100693.34
2023-03-06T02:57:18.523Z,100689.84
2023-03-06T02:59:47.630Z,100690.66
2023-03-06T03:02:15.365Z,100683.88
2023-03-06T03:04:43.141Z,100689.63
2023-03-06T03:07:10.906Z,100685.13
2023-03-06T03:09:38.611Z,100684.28
2023-03-06T03:12:07.500Z,100679.97
2023-03-06T03:14:35.249Z,100682.63
2023-03-06T03:17:04.614Z,100678.13
2023-03-06T03:19:32.578Z,100677.69
2023-03-06T03:22:00.331Z,100675.03
2023-03-06T03:24:28.148Z,100675.22
2023-03-06T03:26:55.928Z,100677.91
2023-03-06T03:29:23.807Z,100676.28
2023-03-06T03:31:51.515Z,100672.19
2023-03-06T03:34:20.654Z,100660.66
2023-03-06T03:36:48.346Z,100659.63
2023-03-06T03:39:16.233Z,100658.00
2023-03-06T03:41:43.954Z,100658.19
2023-03-06T03:44:11.915Z,100660.25
2023-03-06T03:46:39.760Z,100659.22
2023-03-06T03:49:07.903Z,100654.91
2023-03-06T03:51:36.989Z,100662.09
2023-03-06T03:54:06.076Z,100653.25
2023-03-06T03:56:35.021Z,100646.28
2023-03-06T03:59:02.903Z,100642.78
2023-03-06T04:01:30.654Z,100650.78
2023-03-06T04:03:58.389Z,100638.66
2023-03-06T04:06:26.086Z,100634.34
2023-03-06T04:08:55.193Z,100638.88
2023-03-06T04:11:23.034Z,100638.03
2023-03-06T04:13:50.736Z,100626.13
2023-03-06T04:16:18.514Z,100627.56
2023-03-06T04:18:46.211Z,100629.41
2023-03-06T04:21:13.971Z,100626.94
2023-03-06T04:23:41.674Z,100626.13
2023-03-06T04:26:11.066Z,100625.28
2023-03-06T04:28:38.808Z,100624.66
2023-03-06T04:31:06.805Z,100623.22
2023-03-06T04:33:34.864Z,100617.88
2023-03-06T04:36:02.564Z,100614.59
2023-03-06T04:38:30.265Z,100615.63
2023-03-06T04:40:57.975Z,100617.25
2023-03-06T04:43:27.348Z,100616.84
2023-03-06T04:45:55.092Z,100608.00
2023-03-06T04:48:22.841Z,100614.38
2023-03-06T04:50:50.543Z,100607.59
2023-03-06T04:53:19.584Z,100607.59
2023-03-06T04:55:47.548Z,100607.38
2023-03-06T04:58:16.065Z,100612.94
2023-03-06T05:00:45.207Z,100615.59
2023-03-06T05:03:14.276Z,100605.13
2023-03-06T05:05:42.021Z,100602.25
2023-03-06T05:08:13.607Z,100605.94
2023-03-06T05:10:41.410Z,100608.00
2023-03-06T05:13:09.219Z,100604.31
2023-03-06T05:15:36.953Z,100598.97
2023-03-06T05:18:06.182Z,100596.50
2023-03-06T05:20:33.918Z,100595.66
2023-03-06T05:23:01.633Z,100597.31
2023-03-06T05:25:29.312Z,100598.13
2023-03-06T05:27:57.071Z,100599.38
2023-03-06T05:30:25.191Z,100590.53
2023-03-06T05:32:53.178Z,100594.22
2023-03-06T05:35:24.442Z,100588.06
2023-03-06T05:37:52.348Z,100582.94
2023-03-06T05:40:20.523Z,100584.78
2023-03-06T05:42:48.284Z,100583.94
2023-03-06T05:45:15.984Z,100582.09
2023-03-06T05:47:43.660Z,100585.59
2023-03-06T05:50:13.997Z,100585.59
2023-03-06T05:52:43.264Z,100582.31
2023-03-06T05:55:13.449Z,100583.13
2023-03-06T05:57:41.319Z,100574.50
2023-03-06T06:00:14.854Z,100573.69
2023-03-06T06:02:43.361Z,100576.34
2023-03-06T06:05:13.143Z,100578.19
2023-03-06T06:07:41.447Z,100575.53
2023-03-06T06:10:12.834Z,100581.88
2023-03-06T06:12:40.702Z,100582.91
2023-03-06T06:15:09.172Z,100586.81
2023-03-06T06:17:37.049Z,100578.78
2023-03-06T06:20:05.566Z,100577.97
2023-03-06T06:22:36.153Z,100575.50
2023-03-06T06:25:03.871Z,100578.16
2023-03-06T06:27:32.978Z,100588.66
2023-03-06T06:30:00.709Z,100583.31
2023-03-06T06:32:28.498Z,100582.53
2023-03-06T06:34:56.246Z,100578.84
2023-03-06T06:37:24.726Z,100580.09
2023-03-06T06:39:52.487Z,100573.31
2023-03-06T06:42:31.911Z,100569.19
2023-03-06T06:45:03.733Z,100569.81
2023-03-06T06:47:31.492Z,100571.88
2023-03-06T06:49:59.240Z,100574.94
2023-03-06T06:52:27.071Z,100566.72
2023-03-06T06:54:55.017Z,100574.53
2023-03-06T06:57:22.857Z,100572.09
2023-03-06T06:59:52.534Z,100571.06
2023-03-06T07:02:23.298Z,100574.56
2023-03-06T07:05:03.189Z,100574.94
2023-03-06T07:07:31.816Z,100580.28
2023-03-06T07:09:59.534Z,100583.16
2023-03-06T07:12:27.380Z,100580.06
2023-03-06T07:14:55.108Z,100577.16
2023-03-06T07:17:24.234Z,100575.53
2023-03-06T07:19:51.976Z,100581.88
2023-03-06T07:22:19.715Z,100582.28
2023-03-06T07:24:47.412Z,100575.09
2023-03-06T07:27:15.161Z,100580.63
2023-03-06T07:29:44.004Z,100584.13
2023-03-06T07:32:12.670Z,100583.31
2023-03-06T07:34:43.129Z,100579.00
2023-03-06T07:37:10.837Z,100585.34
2023-03-06T07:39:38.633Z,100580.03
2023-03-06T07:42:07.733Z,100578.38
2023-03-06T07:44:37.612Z,100576.31
2023-03-06T07:47:06.168Z,100578.16
2023-03-06T07:49:35.262Z,100581.25
2023-03-06T07:52:04.665Z,100578.16
2023-03-06T07:54:32.757Z,100581.44
2023-03-06T07:57:00.461Z,100581.25
2023-03-06T07:59:28.345Z,100579.59
2023-03-06T08:01:57.452Z,100578.78
2023-03-06T08:04:25.312Z,100578.56
2023-03-06T08:06:53.525Z,100585.97
2023-03-06T08:09:22.701Z,100581.25
2023-03-06T08:11:50.375Z,100578.56
2023-03-06T08:14:18.344Z,100583.91
2023-03-06T08:16:46.058Z,100584.72
2023-03-06T08:19:13.808Z,100586.59
2023-03-06T08:21:41.533Z,100589.25
2023-03-06T08:24:09.645Z,100574.63
2023-03-06T08:26:38.771Z,100591.91
2023-03-06T08:29:08.079Z,100586.59
2023-03-06T08:31:38.545Z,100586.78
2023-03-06T08:34:09.847Z,100588.81
2023-03-06T08:36:37.880Z,100595.63
2023-03-06T08:39:06.614Z,100585.75
2023-03-06T08:41:34.900Z,100590.28
2023-03-06T08:44:04.432Z,100591.09
2023-03-06T08:46:33.288Z,100587.59
2023-03-06T08:49:01.026Z,100597.25
2023-03-06T08:51:29.623Z,100592.56
2023-03-06T08:53:58.383Z,100595.06
2023-03-06T08:56:28.748Z,100581.53
2023-03-06T08:58:58.098Z,100589.13
2023-03-06T09:01:28.956Z,100582.75
2023-03-06T09:03:58.300Z,100584.81
2023-03-06T09:06:27.579Z,100581.28
2023-03-06T09:08:56.228Z,100587.84
2023-03-06T09:11:25.737Z,100581.22
2023-03-06T09:13:53.980Z,100590.72
2023-03-06T09:16:22.338Z,100579.84
2023-03-06T09:18:53.002Z,100590.13
2023-03-06T09:21:21.724Z,100584.59
2023-03-06T09:23:49.643Z,100589.75
2023-03-06T09:26:17.420Z,100591.81
2023-03-06T09:28:45.388Z,100590.38
2023-03-06T09:31:15.199Z,100593.88
2023-03-06T09:33:43.343Z,100590.16
2023-03-06T09:36:16.874Z,100599.84
2023-03-06T09:38:45.839Z,100601.69
2023-03-06T09:41:27.429Z,100594.28
2023-03-06T09:43:59.057Z,100597.56
2023-03-06T09:46:32.280Z,100594.91
2023-03-06T09:49:13.340Z,100592.84
2023-03-06T09:51:58.100Z,100591.19
2023-03-06T09:54:33.761Z,100588.28
2023-03-06T09:57:01.842Z,100587.03
2023-03-06T09:59:29.843Z,100587.81
2023-03-06T10:02:02.821Z,100590.19
2023-03-06T10:04:37.272Z,100587.66
2023-03-06T10:07:14.074Z,100591.13
2023-03-06T10:09:47.471Z,100583.00
2023-03-06T10:12:24.746Z,100585.00
2023-03-06T10:15:03.828Z,100582.88
2023-03-06T10:17:36.377Z,100588.56
2023-03-06T10:20:17.260Z,100575.78
2023-03-06T10:23:00.820Z,100580.47
2023-03-06T10:25:34.162Z,100581.91
2023-03-06T10:28:13.990Z,100582.13
2023-03-06T10:30:47.008Z,100577.19
2023-03-06T10:33:23.450Z,100581.63
2023-03-06T10:35:53.157Z,100579.91
2023-03-06T10:38:23.909Z,100586.81
2023-03-06T10:41:08.247Z,100588.53
2023-03-06T10:43:37.766Z,100594.06
2023-03-06T10:46:07.670Z,100586.41
2023-03-06T10:48:37.081Z,100593.16
2023-03-06T10:51:19.023Z,100583.38
2023-03-06T10:53:54.238Z,100583.66
2023-03-06T10:56:29.499Z,100585.47
2023-03-06T10:59:09.165Z,100589.44
2023-03-06T11:01:37.774Z,100585.66
2023-03-06T11:04:27.409Z,100588.22
2023-03-06T11:07:17.497Z,100595.91
2023-03-06T11:10:05.103Z,100592.88
2023-03-06T11:12:34.558Z,100572.78
2023-03-06T11:15:14.183Z,100586.34
2023-03-06T11:17:51.088Z,100583.47
2023-03-06T11:20:21.051Z,100578.16
2023-03-06T11:22:52.047Z,100576.09
2023-03-06T11:25:23.756Z,100576.53
2023-03-06T11:27:58.608Z,100569.13
2023-03-06T11:30:34.837Z,100574.91
2023-03-06T11:33:09.323Z,100567.91
2023-03-06T11:35:50.827Z,100566.25
2023-03-06T11:38:23.512Z,100565.44
2023-03-06T11:40:55.040Z,100557.22
2023-03-06T11:43:28.056Z,100558.19
2023-03-06T11:46:01.285Z,100559.16
2023-03-06T11:48:35.295Z,100551.84
2023-03-06T11:51:13.453Z,100549.28
2023-03-06T11:53:41.858Z,100542.38
2023-03-06T11:56:29.980Z,100541.97
2023-03-06T11:59:08.730Z,100548.50
2023-03-06T12:01:40.562Z,100542.09
2023-03-06T12:04:26.773Z,100534.38
2023-03-06T12:07:02.188Z,100534.47
2023-03-06T12:09:40.367Z,100524.31
2023-03-06T12:12:23.537Z,100525.44
2023-03-06T12:15:06.550Z,100523.19
2023-03-06T12:17:51.583Z,100517.25
2023-03-06T12:20:37.259Z,100510.91
2023-03-06T12:23:19.290Z,100504.16
2023-03-06T12:25:53.183Z,100509.50
2023-03-06T12:28:34.994Z,100509.66
2023-03-06T12:31:40.152Z,100497.84
2023-03-06T12:34:31.830Z,100502.03
2023-03-06T12:37:16.800Z,100492.31
2023-03-06T12:39:58.018Z,100491.66
2023-03-06T12:42:43.706Z,100497.50
2023-03-06T12:45:33.400Z,100493.13
2023-03-06T12:48:03.727Z,100493.00
2023-03-06T12:50:33.505Z,100488.53
2023-03-06T12:53:04.414Z,100499.47
2023-03-06T12:55:41.996Z,100499.91
2023-03-06T12:58:35.286Z,100500.63
2023-03-06T13:01:15.312Z,100498.81
2023-03-06T13:04:04.976Z,100498.44
2023-03-06T13:06:55.955Z,100483.59
2023-03-06T13:09:31.311Z,100482.41
2023-03-06T13:12:17.150Z,100481.88
2023-03-06T13:14:55.140Z,100479.31
2023-03-06T13:17:36.622Z,100474.72
2023-03-06T13:20:36.256Z,100474.41
2023-03-06T13:24:01.214Z,100476.97
2023-03-06T13:26:52.542Z,100469.19
2023-03-06T13:30:00.390Z,100464.50
2023-03-06T13:32:35.902Z,100457.34
2023-03-06T13:35:18.868Z,100462.09
2023-03-06T13:37:51.123Z,100459.03
2023-03-06T13:40:35.881Z,100451.41
2023-03-06T13:43:41.462Z,100454.31
2023-03-06T13:46:24.786Z,100450.22
2023-03-06T13:49:11.980Z,100457.63
2023-03-06T13:51:41.895Z,100458.66
2023-03-06T13:54:38.047Z,100456.22
2023-03-06T13:57:23.724Z,100445.72
2023-03-06T14:00:14.327Z,100453.97
2023-03-06T14:03:11.058Z,100453.13
2023-03-06T14:05:45.836Z,100446.16
2023-03-06T14:08:17.158Z,100438.69
2023-03-06T14:10:46.572Z,100438.38
2023-03-06T14:13:20.762Z,100432.09
2023-03-06T14:15:50.306Z,100426.81
2023-03-06T14:18:21.760Z,100425.13
2023-03-06T14:20:56.210Z,100410.75
2023-03-06T14:23:30.417Z,100411.59
2023-03-06T14:26:03.625Z,100406.47
2023-03-06T14:28:33.235Z,100405.34
2023-03-06T14:31:03.071Z,100406.28
2023-03-06T14:33:33.342Z,100400.03
2023-03-06T14:36:05.104Z,100394.59
2023-03-06T14:38:37.277Z,100396.53
2023-03-06T14:41:06.952Z,100398.66
2023-03-06T14:43:34.659Z,100395.81
2023-03-06T14:46:05.099Z,100385.97
2023-03-06T14:48:42.271Z,100386.41
2023-03-06T14:51:17.882Z,100376.97
2023-03-06T14:53:48.078Z,100372.22
2023-03-06T14:56:19.142Z,100374.31
2023-03-06T14:58:55.179Z,100357.84
2023-03-06T15:01:28.382Z,100358.28
2023-03-06T15:03:59.074Z,100362.41
2023-03-06T15:06:34.414Z,100363.66
2023-03-06T15:09:07.810Z,100353.75
2023-03-06T15:12:00.236Z,100347.59
2023-03-06T15:14:34.871Z,100350.25
2023-03-06T15:17:24.284Z,100334.97
2023-03-06T15:19:54.501Z,100347.97
2023-03-06T15:22:29.480Z,100342.22
2023-03-06T15:25:19.748Z,100337.91
2023-03-06T15:27:50.895Z,100331.91
2023-03-06T15:30:28.119Z,100325.66
2023-03-06T15:33:25.338Z,100332.47
2023-03-06T15:35:57.166Z,100317.34
2023-03-06T15:38:38.399Z,100314.88
2023-03-06T15:41:07.693Z,100313.59
2023-03-06T15:43:38.294Z,100314.16
2023-03-06T15:46:08.405Z,100304.84
2023-03-06T15:48:36.378Z,100303.28
2023-03-06T15:51:04.970Z,100299.97
2023-03-06T15:53:34.154Z,100299.69
2023-03-06T15:56:02.957Z,100300.66
2023-03-06T15:58:34.667Z,100292.34
2023-03-06T16:01:03.732Z,100291.81
2023-03-06T16:03:31.660Z,100291.88
2023-03-06T16:05:59.414Z,100284.53
2023-03-06T16:08:27.745Z,100279.03
2023-03-06T16:10:56.837Z,100278.66
2023-03-06T16:13:28.062Z,100275.41
2023-03-06T16:15:56.212Z,100275.47
2023-03-06T16:18:23.978Z,100271.97
2023-03-06T16:20:51.834Z,100273.81
2023-03-06T16:23:19.520Z,100267.88
2023-03-06T16:25:50.226Z,100267.28
2023-03-06T16:28:20.112Z,100259.69
2023-03-06T16:30:47.946Z,100264.22
2023-03-06T16:33:15.859Z,100264.66
2023-03-06T16:35:46.548Z,100257.69
2023-03-06T16:38:15.606Z,100256.03
2023-03-06T16:40:43.800Z,100257.22
2023-03-06T16:43:13.480Z,100249.66
2023-03-06T16:45:43.506Z,100245.78
2023-03-06T16:48:16.342Z,100250.50
2023-03-06T16:50:44.672Z,100246.41
2023-03-06T16:53:12.371Z,100251.75
2023-03-06T16:55:40.349Z,100255.25
2023-03-06T16:58:08.659Z,100247.22
2023-03-06T17:00:36.372Z,100249.09
2023-03-06T17:03:05.511Z,100252.75
2023-03-06T17:05:34.654Z,100244.59
2023-03-06T17:08:02.443Z,100240.28
2023-03-06T17:10:30.321Z,100237.78
2023-03-06T17:12:58.285Z,100241.25
2023-03-06T17:15:26.165Z,100240.16
2023-03-06T17:17:54.029Z,100237.66
2023-03-06T17:20:23.795Z,100232.53
2023-03-06T17:22:51.610Z,100240.53
2023-03-06T17:25:19.581Z,100242.34
2023-03-06T17:27:47.282Z,100231.25
2023-03-06T17:30:15.498Z,100237.03
2023-03-06T17:32:43.342Z,100242.09
2023-03-06T17:35:11.341Z,100234.72
2023-03-06T17:37:40.463Z,100240.97
2023-03-06T17:40:10.704Z,100242.72
2023-03-06T17:42:38.473Z,100240.06
2023-03-06T17:45:09.283Z,100243.19
2023-03-06T17:47:37.043Z,100236.63
2023-03-06T17:50:05.419Z,100242.44
2023-03-06T17:52:33.442Z,100248.47
2023-03-06T17:55:02.543Z,100234.09
2023-03-06T17:57:30.219Z,100239.53
2023-03-06T17:59:57.940Z,100240.41
2023-03-06T18:02:25.678Z,100243.28
2023-03-06T18:04:53.455Z,100244.53
2023-03-06T18:07:21.168Z,100241.28
2023-03-06T18:09:49.110Z,100240.44
2023-03-06T18:12:18.367Z,100236.34
2023-03-06T18:14:46.940Z,100228.94
2023-03-06T18:17:14.694Z,100229.41
2023-03-06T18:19:42.453Z,100211.47
2023-03-06T18:22:10.211Z,100212.25
2023-03-06T18:24:37.950Z,100212.22
2023-03-06T18:27:05.728Z,100211.94
2023-03-06T18:29:34.801Z,100196.84
2023-03-06T18:32:03.052Z,100200.00
2023-03-06T18:34:30.976Z,100193.69
2023-03-06T18:36:58.673Z,100182.13
2023-03-06T18:39:26.393Z,100180.22
2023-03-06T18:41:54.793Z,100187.19
2023-03-06T18:44:23.256Z,100169.06
2023-03-06T18:46:52.397Z,100173.69
2023-03-06T18:49:20.327Z,100178.25
2023-03-06T18:51:50.189Z,100174.84
2023-03-06T18:54:18.027Z,100155.94
2023-03-06T18:56:45.683Z,100156.66
2023-03-06T18:59:18.200Z,100161.28
2023-03-06T19:01:47.215Z,100158.69
2023-03-06T19:04:16.381Z,100151.09
2023-03-06T19:06:44.173Z,100151.53
2023-03-06T19:09:12.029Z,100150.72
2023-03-06T19:11:40.136Z,100145.38
2023-03-06T19:14:08.678Z,100144.69
2023-03-06T19:16:36.561Z,100140.16
2023-03-06T19:19:04.507Z,100145.50
2023-03-06T19:21:33.639Z,100131.53
2023-03-06T19:24:03.303Z,100133.84
2023-03-06T19:26:31.246Z,100133.47
2023-03-06T19:28:59.037Z,100131.03
2023-03-06T19:31:28.479Z,100127.97
2023-03-06T19:33:57.675Z,100126.75
2023-03-06T19:36:28.763Z,100128.84
2023-03-06T19:38:59.142Z,100118.94
2023-03-06T19:41:27.850Z,100121.19
2023-03-06T19:43:58.281Z,100119.75
2023-03-06T19:46:27.434Z,100113.59
2023-03-06T19:48:57.156Z,100111.16
2023-03-06T19:51:25.364Z,100104.38
2023-03-06T19:53:53.364Z,100110.78
2023-03-06T19:56:26.019Z,100100.50
2023-03-06T19:58:53.742Z,100093.53
2023-03-06T20:01:23.390Z,100091.91
2023-03-06T20:03:56.125Z,100086.75
2023-03-06T20:06:23.862Z,100083.28
2023-03-06T20:08:51.605Z,100072.41
2023-03-06T20:11:20.861Z,100071.38
2023-03-06T20:13:50.371Z,100071.59
2023-03-06T20:16:18.856Z,100061.94
2023-03-06T20:18:46.820Z,100057.03
2023-03-06T20:21:15.329Z,100051.47
2023-03-06T20:23:43.246Z,100047.97
2023-03-06T20:26:12.812Z,100042.84
2023-03-06T20:28:41.417Z,100040.38
2023-03-06T20:31:13.313Z,100043.06
2023-03-06T20:33:41.128Z,100041.44
2023-03-06T20:36:13.763Z,100038.97
2023-03-06T20:38:41.721Z,100023.16
2023-03-06T20:41:15.488Z,100016.16
2023-03-06T20:43:43.289Z,100011.84
2023-03-06T20:46:13.900Z,100015.34
2023-03-06T20:48:42.307Z,100016.38
2023-03-06T20:51:16.270Z,100005.91
2023-03-06T20:53:44.610Z,100004.28
2023-03-06T20:56:13.544Z,100004.28
2023-03-06T20:58:41.305Z,99998.13
2023-03-06T21:01:09.157Z,100003.47
2023-03-06T21:03:38.229Z,100001.38
2023-03-06T21:06:06.289Z,100004.28
2023-03-06T21:08:34.009Z,100000.78
2023-03-06T21:11:01.697Z,99991.34
2023-03-06T21:13:29.430Z,100002.06
2023-03-06T21:15:57.158Z,99992.41
2023-03-06T21:18:24.966Z,99991.56
2023-03-06T21:20:54.016Z,99980.28
2023-03-06T21:23:21.727Z,99968.53
2023-03-06T21:25:50.150Z,99975.16
2023-03-06T21:28:18.258Z,99966.91
2023-03-06T21:30:46.936Z,99962.59
2023-03-06T21:33:16.048Z,99958.28
2023-03-06T21:35:45.065Z,99955.63
2023-03-06T21:38:15.447Z,99960.97
2023-03-06T21:40:45.421Z,99955.63
2023-03-06T21:43:13.177Z,99956.88
2023-03-06T21:45:44.588Z,99954.81
2023-03-06T21:48:12.790Z,99948.88
2023-03-06T21:50:40.581Z,99946.19
2023-03-06T21:53:09.887Z,99946.19
2023-03-06T21:55:41.435Z,99941.66
2023-03-06T21:58:09.411Z,99933.25
2023-03-06T22:00:37.324Z,99941.88
2023-03-06T22:03:06.622Z,99933.03
2023-03-06T22:05:34.407Z,99942.91
2023-03-06T22:08:02.161Z,99931.41
2023-03-06T22:10:29.909Z,99939.44
2023-03-06T22:12:58.970Z,99933.25
2023-03-06T22:15:26.775Z,99946.88
2023-03-06T22:17:54.455Z,99928.13
2023-03-06T22:20:22.192Z,99935.56
2023-03-06T22:22:49.925Z,99932.69
2023-03-06T22:25:17.824Z,99930.00
2023-03-06T22:27:45.516Z,99919.31
2023-03-06T22:30:15.045Z,99923.59
2023-03-06T22:32:42.769Z,99920.13
2023-03-06T22:35:10.909Z,99913.94
2023-03-06T22:37:38.638Z,99911.28
2023-03-06T22:40:07.286Z,99907.78
2023-03-06T22:42:35.309Z,99913.38
2023-03-06T22:45:03.124Z,99911.50
2023-03-06T22:47:32.201Z,99908.00
2023-03-06T22:49:59.927Z,99904.28
2023-03-06T22:52:27.583Z,99913.59
2023-03-06T22:54:55.320Z,99901.03
2023-03-06T22:57:23.022Z,99902.88
2023-03-06T22:59:50.752Z,99908.69
2023-03-06T23:02:18.490Z,99899.84
2023-03-06T23:04:52.078Z,99898.00
2023-03-06T23:07:20.292Z,99906.00
2023-03-06T23:09:48.118Z,99900.91
2023-03-06T23:12:15.816Z,99909.72
2023-03-06T23:14:43.677Z,99900.91
2023-03-06T23:17:11.520Z,99904.59
2023-03-06T23:19:39.346Z,99905.66
2023-03-06T23:22:08.446Z,99905.66
2023-03-06T23:24:36.741Z,99897.63
2023-03-06T23:27:04.735Z,99902.38
2023-03-06T23:29:32.528Z,99902.16
2023-03-06T23:32:00.217Z,99902.38
2023-03-06T23:34:28.029Z,99897.03
2023-03-06T23:36:56.246Z,99897.03
2023-03-06T23:39:25.503Z,99898.31
2023-03-06T23:41:53.215Z,99901.78
2023-03-06T23:44:20.940Z,99906.34
2023-03-06T23:46:48.657Z,99910.03
2023-03-06T23:49:16.624Z,99904.09
2023-03-06T23:51:44.352Z,99911.31
2023-03-06T23:54:12.171Z,99908.03
2023-03-06T23:56:41.246Z,99909.09
2023-03-06T23:59:10.854Z,99910.94
